sensor_id;sensor_type;location;lat;lon;timestamp;pressure;altitude;pressure_sealevel;temperature;humidity
7200;BME280;3641;49.082;8.200;2022-10-26T00:00:52;100318.28;;;12.99;91.20
7200;BME280;3641;49.082;8.200;2022-10-26T00:03:18;100318.50;;;13.04;90.46
7200;BME280;3641;49.082;8.200;2022-10-26T00:05:46;100314.31;;;13.08;89.44
7200;BME280;3641;49.082;8.200;2022-10-26T00:08:13;100322.72;;;13.00;90.91
7200;BME280;3641;49.082;8.200;2022-10-26T00:10:39;100315.34;;;13.01;90.12
7200;BME280;3641;49.082;8.200;2022-10-26T00:13:09;100302.28;;;13.09;89.58
7200;BME280;3641;49.082;8.200;2022-10-26T00:15:39;100293.66;;;13.13;89.40
7200;BME280;3641;49.082;8.200;2022-10-26T00:18:06;100300.63;;;13.08;89.97
7200;BME280;3641;49.082;8.200;2022-10-26T00:20:32;100303.00;;;13.18;89.21
7200;BME280;3641;49.082;8.200;2022-10-26T00:23:00;100297.38;;;12.98;92.98
7200;BME280;3641;49.082;8.200;2022-10-26T00:25:27;100296.19;;;13.07;90.23
7200;BME280;3641;49.082;8.200;2022-10-26T00:27:53;100299.13;;;13.06;90.40
7200;BME280;3641;49.082;8.200;2022-10-26T00:30:20;100295.91;;;12.96;91.88
7200;BME280;3641;49.082;8.200;2022-10-26T00:32:46;100300.66;;;13.15;89.41
7200;BME280;3641;49.082;8.200;2022-10-26T00:35:13;100303.38;;;13.15;89.28
7200;BME280;3641;49.082;8.200;2022-10-26T00:37:39;100305.94;;;13.17;90.76
7200;BME280;3641;49.082;8.200;2022-10-26T00:40:08;100304.63;;;13.13;89.62
7200;BME280;3641;49.082;8.200;2022-10-26T00:42:34;100310.97;;;13.13;89.91
7200;BME280;3641;49.082;8.200;2022-10-26T00:45:04;100315.38;;;13.07;89.82
7200;BME280;3641;49.082;8.200;2022-10-26T00:47:37;100309.03;;;13.07;90.12
7200;BME280;3641;49.082;8.200;2022-10-26T00:50:08;100312.41;;;13.09;90.05
7200;BME280;3641;49.082;8.200;2022-10-26T00:52:36;100314.72;;;13.05;90.56
7200;BME280;3641;49.082;8.200;2022-10-26T00:55:04;100314.19;;;12.88;91.23
7200;BME280;3641;49.082;8.200;2022-10-26T00:57:33;100305.84;;;13.03;90.31
7200;BME280;3641;49.082;8.200;2022-10-26T01:00:00;100302.69;;;13.06;89.73
7200;BME280;3641;49.082;8.200;2022-10-26T01:02:27;100299.97;;;13.06;91.01
7200;BME280;3641;49.082;8.200;2022-10-26T01:04:54;100297.41;;;13.05;89.79
7200;BME280;3641;49.082;8.200;2022-10-26T01:07:21;100300.22;;;13.12;89.29
7200;BME280;3641;49.082;8.200;2022-10-26T01:09:48;100291.13;;;13.11;89.86
7200;BME280;3641;49.082;8.200;2022-10-26T01:12:14;100283.16;;;13.16;90.06
7200;BME280;3641;49.082;8.200;2022-10-26T01:14:42;100281.22;;;13.10;89.87
7200;BME280;3641;49.082;8.200;2022-10-26T01:17:21;100276.78;;;13.09;89.58
7200;BME280;3641;49.082;8.200;2022-10-26T01:20:12;100280.78;;;13.06;90.62
7200;BME280;3641;49.082;8.200;2022-10-26T01:22:47;100266.47;;;13.11;89.73
7200;BME280;3641;49.082;8.200;2022-10-26T01:25:30;100262.69;;;13.12;90.43
7200;BME280;3641;49.082;8.200;2022-10-26T01:28:07;100264.69;;;12.90;93.09
7200;BME280;3641;49.082;8.200;2022-10-26T01:30:38;100266.75;;;12.81;93.38
7200;BME280;3641;49.082;8.200;2022-10-26T01:33:13;100268.94;;;12.99;91.51
7200;BME280;3641;49.082;8.200;2022-10-26T01:35:49;100279.75;;;13.07;90.49
7200;BME280;3641;49.082;8.200;2022-10-26T01:38:23;100277.00;;;13.07;90.05
7200;BME280;3641;49.082;8.200;2022-10-26T01:40:55;100283.31;;;13.08;90.64
7200;BME280;3641;49.082;8.200;2022-10-26T01:43:24;100288.13;;;12.99;90.67
7200;BME280;3641;49.082;8.200;2022-10-26T01:45:55;100286.44;;;12.98;90.61
7200;BME280;3641;49.082;8.200;2022-10-26T01:48:23;100288.59;;;12.75;93.96
7200;BME280;3641;49.082;8.200;2022-10-26T01:50:52;100297.69;;;12.75;93.48
7200;BME280;3641;49.082;8.200;2022-10-26T01:53:19;100287.16;;;12.79;92.78
7200;BME280;3641;49.082;8.200;2022-10-26T01:55:48;100284.56;;;12.99;90.67
7200;BME280;3641;49.082;8.200;2022-10-26T02:01:34;100289.88;;;13.07;90.38
7200;BME280;3641;49.082;8.200;2022-10-26T02:04:14;100302.06;;;13.04;91.30
7200;BME280;3641;49.082;8.200;2022-10-26T02:06:51;100317.53;;;12.84;94.13
7200;BME280;3641;49.082;8.200;2022-10-26T02:09:26;100325.47;;;12.72;94.60
7200;BME280;3641;49.082;8.200;2022-10-26T02:11:54;100320.63;;;12.74;93.32
7200;BME280;3641;49.082;8.200;2022-10-26T02:14:26;100309.16;;;12.92;91.84
7200;BME280;3641;49.082;8.200;2022-10-26T02:17:03;100304.38;;;13.01;90.67
7200;BME280;3641;49.082;8.200;2022-10-26T02:19:36;100303.09;;;13.03;90.63
7200;BME280;3641;49.082;8.200;2022-10-26T02:22:09;100306.28;;;13.00;92.52
7200;BME280;3641;49.082;8.200;2022-10-26T02:24:39;100309.13;;;12.85;94.15
7200;BME280;3641;49.082;8.200;2022-10-26T02:27:07;100307.22;;;12.86;92.83
7200;BME280;3641;49.082;8.200;2022-10-26T02:29:37;100315.00;;;12.82;93.14
7200;BME280;3641;49.082;8.200;2022-10-26T02:32:07;100306.00;;;12.95;91.29
7200;BME280;3641;49.082;8.200;2022-10-26T02:34:34;100307.91;;;12.95;91.63
7200;BME280;3641;49.082;8.200;2022-10-26T02:37:03;100331.47;;;12.89;93.33
7200;BME280;3641;49.082;8.200;2022-10-26T02:39:31;100331.16;;;12.70;95.03
7200;BME280;3641;49.082;8.200;2022-10-26T02:42:00;100335.47;;;12.58;96.84
7200;BME280;3641;49.082;8.200;2022-10-26T02:44:31;100333.56;;;12.59;97.12
7200;BME280;3641;49.082;8.200;2022-10-26T02:46:59;100333.34;;;12.53;97.67
7200;BME280;3641;49.082;8.200;2022-10-26T02:49:28;100332.31;;;12.83;92.43
7200;BME280;3641;49.082;8.200;2022-10-26T02:52:01;100321.22;;;12.98;91.63
7200;BME280;3641;49.082;8.200;2022-10-26T02:54:34;100326.31;;;13.07;90.85
7200;BME280;3641;49.082;8.200;2022-10-26T02:57:05;100326.56;;;12.78;94.76
7200;BME280;3641;49.082;8.200;2022-10-26T02:59:36;100312.63;;;12.72;95.68
7200;BME280;3641;49.082;8.200;2022-10-26T03:02:04;100314.16;;;12.82;93.96
7200;BME280;3641;49.082;8.200;2022-10-26T03:04:33;100315.69;;;12.91;92.30
7200;BME280;3641;49.082;8.200;2022-10-26T03:07:00;100303.19;;;12.82;94.34
7200;BME280;3641;49.082;8.200;2022-10-26T03:09:27;100297.69;;;12.75;95.40
7200;BME280;3641;49.082;8.200;2022-10-26T03:11:53;100314.97;;;12.76;95.62
7200;BME280;3641;49.082;8.200;2022-10-26T03:14:20;100323.38;;;12.46;98.70
7200;BME280;3641;49.082;8.200;2022-10-26T03:16:46;100330.34;;;12.48;98.78
7200;BME280;3641;49.082;8.200;2022-10-26T03:19:13;100321.75;;;12.30;100.00
7200;BME280;3641;49.082;8.200;2022-10-26T03:21:40;100328.41;;;12.70;95.05
7200;BME280;3641;49.082;8.200;2022-10-26T03:24:07;100326.41;;;12.29;100.00
7200;BME280;3641;49.082;8.200;2022-10-26T03:26:34;100322.34;;;12.47;98.35
7200;BME280;3641;49.082;8.200;2022-10-26T03:29:01;100323.19;;;12.47;97.57
7200;BME280;3641;49.082;8.200;2022-10-26T03:31:27;100323.13;;;12.69;94.92
7200;BME280;3641;49.082;8.200;2022-10-26T03:33:54;100317.78;;;12.54;97.57
7200;BME280;3641;49.082;8.200;2022-10-26T03:36:20;100328.56;;;12.62;95.69
7200;BME280;3641;49.082;8.200;2022-10-26T03:38:48;100320.94;;;12.58;97.03
7200;BME280;3641;49.082;8.200;2022-10-26T03:41:14;100316.50;;;12.28;100.00
7200;BME280;3641;49.082;8.200;2022-10-26T03:43:41;100325.66;;;12.42;97.58
7200;BME280;3641;49.082;8.200;2022-10-26T03:46:07;100323.53;;;12.66;94.58
7200;BME280;3641;49.082;8.200;2022-10-26T03:48:34;100317.75;;;12.82;92.56
7200;BME280;3641;49.082;8.200;2022-10-26T03:51:00;100325.31;;;12.80;93.20
7200;BME280;3641;49.082;8.200;2022-10-26T03:53:27;100313.72;;;12.78;92.95
7200;BME280;3641;49.082;8.200;2022-10-26T03:55:54;100312.38;;;12.67;94.03
7200;BME280;3641;49.082;8.200;2022-10-26T03:58:21;100300.13;;;12.63;94.76
7200;BME280;3641;49.082;8.200;2022-10-26T04:00:47;100297.41;;;12.70;94.18
7200;BME280;3641;49.082;8.200;2022-10-26T04:03:14;100307.06;;;12.59;94.50
7200;BME280;3641;49.082;8.200;2022-10-26T04:05:40;100311.69;;;12.59;94.49
7200;BME280;3641;49.082;8.200;2022-10-26T04:08:07;100312.50;;;12.52;94.74
7200;BME280;3641;49.082;8.200;2022-10-26T04:10:34;100318.38;;;12.28;98.09
7200;BME280;3641;49.082;8.200;2022-10-26T04:13:02;100321.47;;;12.18;98.42
7200;BME280;3641;49.082;8.200;2022-10-26T04:15:28;100318.00;;;12.31;95.69
7200;BME280;3641;49.082;8.200;2022-10-26T04:17:55;100317.03;;;12.17;97.96
7200;BME280;3641;49.082;8.200;2022-10-26T04:20:22;100305.47;;;12.43;94.75
7200;BME280;3641;49.082;8.200;2022-10-26T04:22:56;100296.72;;;12.54;93.47
7200;BME280;3641;49.082;8.200;2022-10-26T04:25:22;100285.59;;;12.63;92.87
7200;BME280;3641;49.082;8.200;2022-10-26T04:27:49;100284.34;;;12.37;97.05
7200;BME280;3641;49.082;8.200;2022-10-26T04:30:17;100275.34;;;12.43;95.17
7200;BME280;3641;49.082;8.200;2022-10-26T04:32:43;100281.16;;;12.62;92.74
7200;BME280;3641;49.082;8.200;2022-10-26T04:35:09;100281.50;;;12.52;93.67
7200;BME280;3641;49.082;8.200;2022-10-26T04:37:36;100280.91;;;12.57;92.81
7200;BME280;3641;49.082;8.200;2022-10-26T04:40:03;100286.44;;;12.63;92.16
7200;BME280;3641;49.082;8.200;2022-10-26T04:42:29;100310.63;;;12.31;96.09
7200;BME280;3641;49.082;8.200;2022-10-26T04:44:58;100313.69;;;12.43;94.97
7200;BME280;3641;49.082;8.200;2022-10-26T04:47:26;100323.44;;;12.52;94.23
7200;BME280;3641;49.082;8.200;2022-10-26T04:49:52;100321.13;;;12.28;97.81
7200;BME280;3641;49.082;8.200;2022-10-26T04:52:18;100325.91;;;12.47;95.27
7200;BME280;3641;49.082;8.200;2022-10-26T04:54:45;100323.50;;;12.59;93.89
7200;BME280;3641;49.082;8.200;2022-10-26T04:57:11;100327.03;;;12.53;94.22
7200;BME280;3641;49.082;8.200;2022-10-26T04:59:38;100328.78;;;12.61;92.86
7200;BME280;3641;49.082;8.200;2022-10-26T05:02:04;100322.63;;;12.30;98.14
7200;BME280;3641;49.082;8.200;2022-10-26T05:04:32;100318.06;;;11.94;100.00
7200;BME280;3641;49.082;8.200;2022-10-26T05:06:58;100323.56;;;12.16;97.84
7200;BME280;3641;49.082;8.200;2022-10-26T05:09:25;100323.81;;;12.21;98.34
7200;BME280;3641;49.082;8.200;2022-10-26T05:11:51;100324.66;;;12.00;99.18
7200;BME280;3641;49.082;8.200;2022-10-26T05:14:18;100317.16;;;12.09;99.24
7200;BME280;3641;49.082;8.200;2022-10-26T05:16:44;100328.50;;;12.27;96.51
7200;BME280;3641;49.082;8.200;2022-10-26T05:19:10;100323.09;;;12.12;98.18
7200;BME280;3641;49.082;8.200;2022-10-26T05:21:38;100322.22;;;11.90;100.00
7200;BME280;3641;49.082;8.200;2022-10-26T05:24:05;100328.38;;;11.92;100.00
7200;BME280;3641;49.082;8.200;2022-10-26T05:26:32;100331.78;;;11.79;100.00
7200;BME280;3641;49.082;8.200;2022-10-26T05:28:59;100325.31;;;12.02;99.40
7200;BME280;3641;49.082;8.200;2022-10-26T05:31:25;100338.53;;;11.98;100.00
7200;BME280;3641;49.082;8.200;2022-10-26T05:33:51;100336.44;;;12.01;100.00
7200;BME280;3641;49.082;8.200;2022-10-26T05:36:18;100336.47;;;12.22;97.38
7200;BME280;3641;49.082;8.200;2022-10-26T05:38:46;100346.88;;;12.33;95.61
7200;BME280;3641;49.082;8.200;2022-10-26T05:41:12;100343.66;;;12.30;97.54
7200;BME280;3641;49.082;8.200;2022-10-26T05:43:39;100343.03;;;12.28;98.64
7200;BME280;3641;49.082;8.200;2022-10-26T05:46:05;100348.63;;;11.98;100.00
7200;BME280;3641;49.082;8.200;2022-10-26T05:48:32;100353.28;;;12.19;98.13
7200;BME280;3641;49.082;8.200;2022-10-26T05:50:59;100354.69;;;12.37;96.80
7200;BME280;3641;49.082;8.200;2022-10-26T05:53:26;100365.84;;;11.92;100.00
7200;BME280;3641;49.082;8.200;2022-10-26T05:55:55;100356.31;;;12.09;100.00
7200;BME280;3641;49.082;8.200;2022-10-26T05:58:22;100362.03;;;12.36;96.19
7200;BME280;3641;49.082;8.200;2022-10-26T06:01:00;100358.47;;;12.35;98.26
7200;BME280;3641;49.082;8.200;2022-10-26T06:03:41;100373.91;;;12.43;96.06
7200;BME280;3641;49.082;8.200;2022-10-26T06:06:12;100383.06;;;12.57;94.12
7200;BME280;3641;49.082;8.200;2022-10-26T06:08:39;100382.63;;;12.53;95.10
7200;BME280;3641;49.082;8.200;2022-10-26T06:11:09;100394.03;;;12.57;95.07
7200;BME280;3641;49.082;8.200;2022-10-26T06:13:36;100393.00;;;12.58;94.62
7200;BME280;3641;49.082;8.200;2022-10-26T06:16:17;100387.72;;;12.57;96.31
7200;BME280;3641;49.082;8.200;2022-10-26T06:18:56;100396.06;;;12.48;96.39
7200;BME280;3641;49.082;8.200;2022-10-26T06:21:39;100399.97;;;12.61;95.17
7200;BME280;3641;49.082;8.200;2022-10-26T06:24:16;100405.44;;;12.61;96.06
7200;BME280;3641;49.082;8.200;2022-10-26T06:26:52;100400.16;;;12.59;94.21
7200;BME280;3641;49.082;8.200;2022-10-26T06:29:31;100394.88;;;12.58;94.45
7200;BME280;3641;49.082;8.200;2022-10-26T06:32:01;100399.78;;;12.62;95.00
7200;BME280;3641;49.082;8.200;2022-10-26T06:34:32;100412.22;;;12.65;94.34
7200;BME280;3641;49.082;8.200;2022-10-26T06:37:00;100409.03;;;12.40;99.02
7200;BME280;3641;49.082;8.200;2022-10-26T06:39:29;100407.09;;;12.33;98.92
7200;BME280;3641;49.082;8.200;2022-10-26T06:41:58;100415.88;;;12.50;96.32
7200;BME280;3641;49.082;8.200;2022-10-26T06:44:25;100401.22;;;12.37;98.76
7200;BME280;3641;49.082;8.200;2022-10-26T06:46:59;100402.72;;;12.39;99.43
7200;BME280;3641;49.082;8.200;2022-10-26T06:49:34;100410.25;;;12.59;96.36
7200;BME280;3641;49.082;8.200;2022-10-26T06:52:07;100415.31;;;12.33;99.29
7200;BME280;3641;49.082;8.200;2022-10-26T06:54:46;100417.78;;;12.50;98.02
7200;BME280;3641;49.082;8.200;2022-10-26T06:57:15;100425.72;;;12.45;98.98
7200;BME280;3641;49.082;8.200;2022-10-26T06:59:45;100424.03;;;12.22;100.00
7200;BME280;3641;49.082;8.200;2022-10-26T07:02:14;100425.91;;;12.22;100.00
7200;BME280;3641;49.082;8.200;2022-10-26T07:04:41;100423.38;;;12.20;100.00
7200;BME280;3641;49.082;8.200;2022-10-26T07:07:08;100425.53;;;12.25;100.00
7200;BME280;3641;49.082;8.200;2022-10-26T07:09:35;100438.41;;;12.09;100.00
7200;BME280;3641;49.082;8.200;2022-10-26T07:12:01;100438.81;;;12.06;100.00
7200;BME280;3641;49.082;8.200;2022-10-26T07:14:29;100435.69;;;12.31;100.00
7200;BME280;3641;49.082;8.200;2022-10-26T07:16:56;100445.47;;;12.40;100.00
7200;BME280;3641;49.082;8.200;2022-10-26T07:19:22;100446.19;;;12.49;99.54
7200;BME280;3641;49.082;8.200;2022-10-26T07:21:49;100442.59;;;12.48;100.00
7200;BME280;3641;49.082;8.200;2022-10-26T07:24:15;100438.38;;;12.67;96.94
7200;BME280;3641;49.082;8.200;2022-10-26T07:26:42;100447.88;;;12.50;100.00
7200;BME280;3641;49.082;8.200;2022-10-26T07:29:08;100448.59;;;12.59;98.95
7200;BME280;3641;49.082;8.200;2022-10-26T07:31:36;100458.31;;;12.61;100.00
7200;BME280;3641;49.082;8.200;2022-10-26T07:34:02;100457.66;;;12.81;96.81
7200;BME280;3641;49.082;8.200;2022-10-26T07:36:29;100463.78;;;12.83;96.77
7200;BME280;3641;49.082;8.200;2022-10-26T07:38:55;100461.75;;;12.92;96.72
7200;BME280;3641;49.082;8.200;2022-10-26T07:41:22;100456.09;;;12.71;100.00
7200;BME280;3641;49.082;8.200;2022-10-26T07:43:48;100462.34;;;12.87;97.83
7200;BME280;3641;49.082;8.200;2022-10-26T07:46:15;100472.31;;;12.95;96.87
7200;BME280;3641;49.082;8.200;2022-10-26T07:48:43;100472.88;;;13.12;95.65
7200;BME280;3641;49.082;8.200;2022-10-26T07:51:10;100482.25;;;12.96;98.10
7200;BME280;3641;49.082;8.200;2022-10-26T07:53:36;100490.47;;;12.74;100.00
7200;BME280;3641;49.082;8.200;2022-10-26T07:56:03;100492.63;;;13.00;97.66
7200;BME280;3641;49.082;8.200;2022-10-26T07:58:30;100494.91;;;12.75;100.00
7200;BME280;3641;49.082;8.200;2022-10-26T08:00:57;100493.41;;;12.72;100.00
7200;BME280;3641;49.082;8.200;2022-10-26T08:03:23;100503.19;;;12.82;100.00
7200;BME280;3641;49.082;8.200;2022-10-26T08:05:51;100506.91;;;12.96;100.00
7200;BME280;3641;49.082;8.200;2022-10-26T08:08:20;100516.53;;;12.92;100.00
7200;BME280;3641;49.082;8.200;2022-10-26T08:10:47;100514.06;;;12.97;100.00
7200;BME280;3641;49.082;8.200;2022-10-26T08:13:14;100520.78;;;12.94;100.00
7200;BME280;3641;49.082;8.200;2022-10-26T08:15:40;100520.66;;;13.02;100.00
7200;BME280;3641;49.082;8.200;2022-10-26T08:18:07;100519.41;;;13.05;100.00
7200;BME280;3641;49.082;8.200;2022-10-26T08:20:33;100524.75;;;13.13;100.00
7200;BME280;3641;49.082;8.200;2022-10-26T08:23:01;100521.41;;;13.18;100.00
7200;BME280;3641;49.082;8.200;2022-10-26T08:25:30;100523.16;;;13.25;99.77
7200;BME280;3641;49.082;8.200;2022-10-26T08:27:59;100518.63;;;13.33;99.57
7200;BME280;3641;49.082;8.200;2022-10-26T08:30:26;100517.63;;;13.40;98.63
7200;BME280;3641;49.082;8.200;2022-10-26T08:32:57;100523.53;;;13.44;98.90
7200;BME280;3641;49.082;8.200;2022-10-26T08:35:24;100522.75;;;13.50;99.16
7200;BME280;3641;49.082;8.200;2022-10-26T08:37:51;100525.13;;;13.60;98.69
7200;BME280;3641;49.082;8.200;2022-10-26T08:40:21;100532.38;;;13.68;97.89
7200;BME280;3641;49.082;8.200;2022-10-26T08:42:52;100528.66;;;13.82;97.59
7200;BME280;3641;49.082;8.200;2022-10-26T08:45:25;100538.41;;;13.91;96.69
7200;BME280;3641;49.082;8.200;2022-10-26T08:47:55;100540.31;;;13.97;97.22
7200;BME280;3641;49.082;8.200;2022-10-26T08:50:26;100538.25;;;13.99;96.72
7200;BME280;3641;49.082;8.200;2022-10-26T08:52:57;100539.97;;;14.07;96.73
7200;BME280;3641;49.082;8.200;2022-10-26T08:55:33;100548.03;;;14.15;96.51
7200;BME280;3641;49.082;8.200;2022-10-26T08:58:06;100547.66;;;14.25;95.57
7200;BME280;3641;49.082;8.200;2022-10-26T09:00:36;100549.13;;;14.28;95.67
7200;BME280;3641;49.082;8.200;2022-10-26T09:03:11;100543.00;;;14.26;95.75
7200;BME280;3641;49.082;8.200;2022-10-26T09:05:45;100543.22;;;14.31;96.11
7200;BME280;3641;49.082;8.200;2022-10-26T09:08:16;100540.47;;;14.31;95.47
7200;BME280;3641;49.082;8.200;2022-10-26T09:10:54;100553.41;;;14.37;95.14
7200;BME280;3641;49.082;8.200;2022-10-26T09:13:32;100550.66;;;14.44;95.18
7200;BME280;3641;49.082;8.200;2022-10-26T09:16:05;100561.72;;;14.57;94.51
7200;BME280;3641;49.082;8.200;2022-10-26T09:18:43;100563.22;;;14.60;94.57
7200;BME280;3641;49.082;8.200;2022-10-26T09:21:21;100568.97;;;14.71;93.97
7200;BME280;3641;49.082;8.200;2022-10-26T09:23:58;100570.06;;;14.91;93.05
7200;BME280;3641;49.082;8.200;2022-10-26T09:26:32;100565.22;;;14.99;92.92
7200;BME280;3641;49.082;8.200;2022-10-26T09:29:05;100570.09;;;15.11;92.17
7200;BME280;3641;49.082;8.200;2022-10-26T09:31:39;100563.78;;;15.30;90.87
7200;BME280;3641;49.082;8.200;2022-10-26T09:34:07;100571.94;;;16.17;88.00
7200;BME280;3641;49.082;8.200;2022-10-26T09:36:39;100576.16;;;16.20;87.87
7200;BME280;3641;49.082;8.200;2022-10-26T09:39:12;100575.13;;;16.07;85.88
7200;BME280;3641;49.082;8.200;2022-10-26T09:41:45;100578.13;;;15.86;87.39
7200;BME280;3641;49.082;8.200;2022-10-26T09:44:21;100581.94;;;15.98;87.90
7200;BME280;3641;49.082;8.200;2022-10-26T09:46:55;100598.31;;;16.45;84.34
7200;BME280;3641;49.082;8.200;2022-10-26T09:49:32;100598.25;;;15.93;87.90
7200;BME280;3641;49.082;8.200;2022-10-26T09:52:01;100595.53;;;15.79;88.38
7200;BME280;3641;49.082;8.200;2022-10-26T09:54:28;100598.91;;;15.75;89.12
7200;BME280;3641;49.082;8.200;2022-10-26T09:56:58;100599.53;;;15.70;89.41
7200;BME280;3641;49.082;8.200;2022-10-26T09:59:26;100599.97;;;15.80;89.43
7200;BME280;3641;49.082;8.200;2022-10-26T10:01:55;100605.25;;;15.89;88.61
7200;BME280;3641;49.082;8.200;2022-10-26T10:04:21;100612.63;;;16.02;88.24
7200;BME280;3641;49.082;8.200;2022-10-26T10:06:50;100611.34;;;16.24;88.05
7200;BME280;3641;49.082;8.200;2022-10-26T10:09:18;100613.97;;;16.51;86.82
7200;BME280;3641;49.082;8.200;2022-10-26T10:11:47;100611.56;;;16.68;86.01
7200;BME280;3641;49.082;8.200;2022-10-26T10:14:22;100618.75;;;16.76;86.73
7200;BME280;3641;49.082;8.200;2022-10-26T10:16:52;100615.84;;;17.09;82.95
7200;BME280;3641;49.082;8.200;2022-10-26T10:19:21;100612.25;;;17.02;83.04
7200;BME280;3641;49.082;8.200;2022-10-26T10:21:50;100623.03;;;17.10;85.08
7200;BME280;3641;49.082;8.200;2022-10-26T10:24:26;100632.00;;;16.99;84.13
7200;BME280;3641;49.082;8.200;2022-10-26T10:27:01;100632.06;;;16.92;87.05
7200;BME280;3641;49.082;8.200;2022-10-26T10:29:31;100641.59;;;16.89;85.76
7200;BME280;3641;49.082;8.200;2022-10-26T10:31:59;100636.69;;;16.98;84.67
7200;BME280;3641;49.082;8.200;2022-10-26T10:34:26;100649.66;;;16.91;84.45
7200;BME280;3641;49.082;8.200;2022-10-26T10:36:55;100645.88;;;16.85;84.05
7200;BME280;3641;49.082;8.200;2022-10-26T10:39:34;100640.16;;;16.87;85.09
7200;BME280;3641;49.082;8.200;2022-10-26T10:42:04;100646.91;;;16.84;85.10
7200;BME280;3641;49.082;8.200;2022-10-26T10:44:33;100651.56;;;16.91;84.83
7200;BME280;3641;49.082;8.200;2022-10-26T10:47:01;100647.97;;;16.90;85.66
7200;BME280;3641;49.082;8.200;2022-10-26T10:49:29;100659.22;;;16.88;85.62
7200;BME280;3641;49.082;8.200;2022-10-26T10:51:57;100646.91;;;16.91;84.96
7200;BME280;3641;49.082;8.200;2022-10-26T10:54:26;100651.75;;;16.96;85.59
7200;BME280;3641;49.082;8.200;2022-10-26T10:56:58;100644.97;;;16.98;85.37
7200;BME280;3641;49.082;8.200;2022-10-26T10:59:39;100641.72;;;17.08;85.11
7200;BME280;3641;49.082;8.200;2022-10-26T11:02:32;100649.47;;;17.24;84.44
7200;BME280;3641;49.082;8.200;2022-10-26T11:08:02;100661.84;;;17.15;85.50
7200;BME280;3641;49.082;8.200;2022-10-26T11:10:34;100669.53;;;17.38;84.00
7200;BME280;3641;49.082;8.200;2022-10-26T11:13:06;100652.09;;;17.45;83.16
7200;BME280;3641;49.082;8.200;2022-10-26T11:15:41;100663.25;;;17.56;82.53
7200;BME280;3641;49.082;8.200;2022-10-26T11:18:13;100654.34;;;17.54;82.39
7200;BME280;3641;49.082;8.200;2022-10-26T11:20:47;100661.63;;;17.74;81.07
7200;BME280;3641;49.082;8.200;2022-10-26T11:23:18;100659.91;;;18.05;79.26
7200;BME280;3641;49.082;8.200;2022-10-26T11:25:50;100653.91;;;17.89;80.05
7200;BME280;3641;49.082;8.200;2022-10-26T11:28:27;100667.28;;;17.86;79.68
7200;BME280;3641;49.082;8.200;2022-10-26T11:31:01;100667.13;;;17.81;82.22
7200;BME280;3641;49.082;8.200;2022-10-26T11:33:32;100667.69;;;17.89;79.16
7200;BME280;3641;49.082;8.200;2022-10-26T11:36:05;100662.28;;;18.01;79.09
7200;BME280;3641;49.082;8.200;2022-10-26T11:38:37;100669.19;;;18.10;79.33
7200;BME280;3641;49.082;8.200;2022-10-26T11:41:12;100668.88;;;18.00;77.45
7200;BME280;3641;49.082;8.200;2022-10-26T11:43:44;100667.38;;;18.23;76.75
7200;BME280;3641;49.082;8.200;2022-10-26T11:46:16;100660.72;;;18.30;76.57
7200;BME280;3641;49.082;8.200;2022-10-26T11:48:46;100665.94;;;18.39;77.77
7200;BME280;3641;49.082;8.200;2022-10-26T11:51:18;100664.31;;;18.31;79.38
7200;BME280;3641;49.082;8.200;2022-10-26T11:53:46;100669.94;;;18.43;76.81
7200;BME280;3641;49.082;8.200;2022-10-26T11:56:22;100669.34;;;18.59;75.20
7200;BME280;3641;49.082;8.200;2022-10-26T11:58:50;100667.63;;;18.58;75.61
7200;BME280;3641;49.082;8.200;2022-10-26T12:01:19;100667.00;;;18.75;74.90
7200;BME280;3641;49.082;8.200;2022-10-26T12:03:48;100672.16;;;18.71;74.06
7200;BME280;3641;49.082;8.200;2022-10-26T12:06:19;100663.31;;;18.81;73.69
7200;BME280;3641;49.082;8.200;2022-10-26T12:08:51;100670.03;;;18.73;74.40
7200;BME280;3641;49.082;8.200;2022-10-26T12:11:27;100675.41;;;18.86;72.83
7200;BME280;3641;49.082;8.200;2022-10-26T12:14:00;100669.88;;;18.86;74.86
7200;BME280;3641;49.082;8.200;2022-10-26T12:16:42;100672.56;;;18.93;73.30
7200;BME280;3641;49.082;8.200;2022-10-26T12:19:17;100662.75;;;19.09;72.11
7200;BME280;3641;49.082;8.200;2022-10-26T12:21:48;100670.47;;;19.07;74.90
7200;BME280;3641;49.082;8.200;2022-10-26T12:24:25;100670.78;;;18.99;74.44
7200;BME280;3641;49.082;8.200;2022-10-26T12:26:53;100679.47;;;19.02;74.72
7200;BME280;3641;49.082;8.200;2022-10-26T12:29:39;100676.47;;;19.04;74.78
7200;BME280;3641;49.082;8.200;2022-10-26T12:35:37;100689.59;;;19.09;74.33
7200;BME280;3641;49.082;8.200;2022-10-26T12:38:25;100690.91;;;19.06;74.21
7200;BME280;3641;49.082;8.200;2022-10-26T12:41:11;100691.28;;;19.10;73.14
7200;BME280;3641;49.082;8.200;2022-10-26T12:43:40;100683.28;;;19.20;72.99
7200;BME280;3641;49.082;8.200;2022-10-26T12:46:38;100693.06;;;19.04;75.57
7200;BME280;3641;49.082;8.200;2022-10-26T12:52:27;100702.03;;;19.18;74.03
7200;BME280;3641;49.082;8.200;2022-10-26T12:55:26;100695.03;;;19.15;73.90
7200;BME280;3641;49.082;8.200;2022-10-26T12:58:07;100700.25;;;19.23;73.18
7200;BME280;3641;49.082;8.200;2022-10-26T13:00:42;100694.38;;;19.32;72.70
7200;BME280;3641;49.082;8.200;2022-10-26T13:03:22;100687.88;;;19.26;73.27
7200;BME280;3641;49.082;8.200;2022-10-26T13:06:12;100688.38;;;19.35;72.91
7200;BME280;3641;49.082;8.200;2022-10-26T13:08:45;100698.31;;;19.24;72.41
7200;BME280;3641;49.082;8.200;2022-10-26T13:11:17;100693.53;;;19.31;72.31
7200;BME280;3641;49.082;8.200;2022-10-26T13:13:51;100695.25;;;19.32;72.35
7200;BME280;3641;49.082;8.200;2022-10-26T13:16:19;100694.59;;;19.30;72.45
7200;BME280;3641;49.082;8.200;2022-10-26T13:18:51;100707.63;;;19.30;72.60
7200;BME280;3641;49.082;8.200;2022-10-26T13:21:19;100695.38;;;19.37;72.49
7200;BME280;3641;49.082;8.200;2022-10-26T13:23:55;100699.44;;;19.35;72.33
7200;BME280;3641;49.082;8.200;2022-10-26T13:26:30;100696.06;;;19.33;72.09
7200;BME280;3641;49.082;8.200;2022-10-26T13:28:57;100703.00;;;19.23;73.35
7200;BME280;3641;49.082;8.200;2022-10-26T13:31:52;100700.16;;;19.30;72.78
7200;BME280;3641;49.082;8.200;2022-10-26T13:34:21;100696.44;;;19.36;72.08
7200;BME280;3641;49.082;8.200;2022-10-26T13:36:52;100708.13;;;19.38;71.38
7200;BME280;3641;49.082;8.200;2022-10-26T13:39:23;100707.63;;;19.30;73.66